Time;durP1;ratioP1;P1;durP2;ratioP2;P2;SDS_P1;SDS_P2;PMS_P1;PMS_P2;Temp;Humidity;BMP_temperature;BMP_pressure;BME280_temperature;BME280_humidity;BME280_pressure;Samples;Min_cycle;Max_cycle;Signal;HPM_P1;HPM_P2
2023/07/15 00:01:06;;;;;;;4.90;4.50;;;25.10;99.90;;;;;;5071415;28;20685;-72
2023/07/15 00:03:36;;;;;;;3.78;3.47;;;25.10;99.90;;;;;;5070894;28;20213;-79
2023/07/15 00:06:05;;;;;;;3.90;3.35;;;25.20;99.90;;;;;;5071493;28;20623;-73
2023/07/15 00:08:33;;;;;;;4.68;4.28;;;25.20;99.90;;;;;;5054617;28;20213;-79
2023/07/15 00:11:00;;;;;;;5.78;4.22;;;25.10;99.90;;;;;;5059520;28;20202;-73
2023/07/15 00:13:27;;;;;;;5.10;3.88;;;25.10;99.90;;;;;;5070779;28;20209;-72
2023/07/15 00:15:54;;;;;;;4.40;4.00;;;25.10;99.90;;;;;;5071157;28;20713;-72
2023/07/15 00:18:21;;;;;;;5.93;4.03;;;25.10;99.90;;;;;;5070899;28;20245;-72
2023/07/15 00:20:50;;;;;;;7.05;4.57;;;25.10;99.90;;;;;;5071048;28;20230;-72
2023/07/15 00:23:20;;;;;;;7.03;3.95;;;25.10;99.90;;;;;;5070413;28;20238;-72
2023/07/15 00:25:48;;;;;;;6.57;3.95;;;25.10;99.90;;;;;;5070742;28;20317;-72
2023/07/15 00:28:15;;;;;;;7.45;3.90;;;25.00;99.90;;;;;;5070721;28;20208;-72
2023/07/15 00:30:42;;;;;;;4.70;4.18;;;24.90;99.90;;;;;;5070839;28;20237;-72
2023/07/15 00:33:15;;;;;;;4.68;4.00;;;24.90;99.90;;;;;;5071305;28;20245;-71
2023/07/15 00:35:42;;;;;;;7.25;4.28;;;24.90;99.90;;;;;;5071139;28;20214;-72
2023/07/15 00:38:11;;;;;;;6.35;4.35;;;24.90;99.90;;;;;;5070876;28;20244;-71
2023/07/15 00:40:40;;;;;;;4.95;3.80;;;24.90;99.90;;;;;;5070770;28;20677;-73
2023/07/15 00:43:45;;;;;;;4.15;3.72;;;25.00;99.90;;;;;;5071005;28;20233;-72
2023/07/15 00:46:46;;;;;;;8.38;4.63;;;24.90;99.90;;;;;;5050124;28;20323;-72
2023/07/15 00:49:16;;;;;;;6.47;4.50;;;24.90;99.90;;;;;;5053810;28;20724;-72
2023/07/15 00:51:46;;;;;;;4.00;3.40;;;25.00;99.90;;;;;;5069223;28;20232;-78
2023/07/15 00:54:15;;;;;;;3.92;2.70;;;25.00;99.90;;;;;;5055234;28;20205;-72
2023/07/15 00:56:45;;;;;;;6.03;3.50;;;25.00;99.90;;;;;;5070452;28;20206;-75
2023/07/15 00:59:15;;;;;;;3.08;2.78;;;24.90;99.90;;;;;;5070117;28;20209;-72
2023/07/15 01:01:45;;;;;;;3.00;2.75;;;24.90;99.90;;;;;;5060775;28;20273;-73
2023/07/15 01:04:12;;;;;;;3.55;2.83;;;24.90;99.90;;;;;;5066617;28;20238;-72
2023/07/15 01:06:41;;;;;;;3.67;3.28;;;24.90;99.90;;;;;;5070536;28;20281;-79
2023/07/15 01:09:09;;;;;;;2.47;2.28;;;24.90;99.90;;;;;;5070460;28;20208;-73
2023/07/15 01:11:36;;;;;;;2.85;2.40;;;24.90;99.90;;;;;;5070623;28;20267;-72
2023/07/15 01:14:04;;;;;;;4.15;3.22;;;24.80;99.90;;;;;;5070650;28;20292;-79
2023/07/15 01:16:32;;;;;;;2.78;2.58;;;24.70;99.90;;;;;;5069933;28;20450;-79
2023/07/15 01:19:02;;;;;;;2.90;2.60;;;24.60;99.90;;;;;;5058673;28;20735;-78
2023/07/15 01:21:32;;;;;;;3.05;2.25;;;24.70;99.90;;;;;;5067706;28;20210;-78
2023/07/15 01:24:00;;;;;;;2.00;1.90;;;24.60;99.90;;;;;;5070320;28;20282;-72
2023/07/15 01:26:27;;;;;;;3.08;2.72;;;24.60;99.90;;;;;;5069713;28;20338;-73
2023/07/15 01:28:54;;;;;;;2.80;2.42;;;24.50;99.90;;;;;;5070517;28;20289;-72
2023/07/15 01:31:21;;;;;;;2.92;2.60;;;24.50;99.90;;;;;;5069766;28;20237;-71
2023/07/15 01:33:48;;;;;;;3.20;2.80;;;24.50;99.90;;;;;;5070053;28;20209;-72
2023/07/15 01:36:15;;;;;;;3.25;2.13;;;24.50;99.90;;;;;;5069556;28;20293;-72
2023/07/15 01:38:42;;;;;;;2.40;2.20;;;24.40;99.90;;;;;;5070168;28;20631;-72
2023/07/15 01:41:10;;;;;;;4.30;2.53;;;24.30;99.90;;;;;;5070608;28;20234;-72
2023/07/15 01:43:38;;;;;;;2.55;2.33;;;24.30;99.90;;;;;;5070371;28;20208;-72
2023/07/15 01:46:05;;;;;;;1.80;1.70;;;24.20;99.90;;;;;;5069998;28;20271;-72
2023/07/15 01:48:32;;;;;;;2.42;2.13;;;24.10;99.90;;;;;;5069646;28;20225;-72
2023/07/15 01:50:58;;;;;;;3.10;2.25;;;24.10;99.90;;;;;;5069665;28;20686;-72
2023/07/15 01:53:25;;;;;;;1.90;1.80;;;24.00;99.90;;;;;;5055612;28;20238;-71
2023/07/15 01:55:52;;;;;;;2.63;2.40;;;23.90;99.90;;;;;;5056305;28;20242;-72
2023/07/15 01:58:21;;;;;;;2.63;1.38;;;23.90;99.90;;;;;;5069573;28;20249;-72
2023/07/15 02:00:49;;;;;;;3.38;2.22;;;23.80;99.90;;;;;;5069738;28;20289;-72
2023/07/15 02:03:16;;;;;;;2.08;1.92;;;23.70;99.90;;;;;;5069377;28;20367;-72
2023/07/15 02:05:43;;;;;;;2.33;2.10;;;23.70;99.90;;;;;;5072218;28;20213;-76
2023/07/15 02:08:10;;;;;;;3.47;2.42;;;23.80;99.90;;;;;;5074007;28;20275;-71
2023/07/15 02:10:37;;;;;;;2.28;1.83;;;23.80;99.90;;;;;;5073752;28;20259;-72
2023/07/15 02:13:04;;;;;;;1.88;1.77;;;23.80;99.90;;;;;;5073601;28;20234;-77
2023/07/15 02:15:32;;;;;;;3.00;2.28;;;23.80;99.90;;;;;;5072930;28;20714;-77
2023/07/15 02:17:59;;;;;;;2.30;2.10;;;23.80;99.90;;;;;;5073189;28;20256;-72
2023/07/15 02:20:26;;;;;;;2.47;2.28;;;23.70;99.90;;;;;;5073230;28;20203;-75
2023/07/15 02:22:53;;;;;;;2.45;2.15;;;23.70;99.90;;;;;;5073239;28;20198;-72
2023/07/15 02:25:20;;;;;;;1.88;1.77;;;23.70;99.90;;;;;;5073035;28;20216;-72
2023/07/15 02:27:49;;;;;;;3.53;2.55;;;23.80;99.90;;;;;;5072936;28;20717;-72
2023/07/15 02:30:16;;;;;;;3.53;1.95;;;23.90;99.90;;;;;;5072874;28;20238;-72
2023/07/15 02:32:45;;;;;;;3.60;2.50;;;23.90;99.90;;;;;;5072638;28;20260;-79
2023/07/15 02:35:13;;;;;;;4.40;2.10;;;23.80;99.90;;;;;;5073274;28;20324;-72
2023/07/15 02:37:43;;;;;;;3.55;2.17;;;23.90;99.90;;;;;;5073162;28;20217;-72
2023/07/15 02:40:11;;;;;;;2.35;2.15;;;23.90;99.90;;;;;;5073281;28;20202;-72
2023/07/15 02:42:38;;;;;;;3.60;2.03;;;23.90;99.90;;;;;;5073345;28;20293;-72
2023/07/15 02:45:07;;;;;;;2.58;1.42;;;23.90;99.90;;;;;;5073096;28;20202;-72
2023/07/15 02:47:35;;;;;;;3.90;2.05;;;23.90;99.90;;;;;;5072196;28;20779;-77
2023/07/15 02:50:06;;;;;;;2.22;2.03;;;23.90;99.90;;;;;;5072629;28;20241;-73
2023/07/15 02:52:33;;;;;;;4.70;2.17;;;23.70;99.90;;;;;;5065585;28;20241;-72
2023/07/15 02:55:01;;;;;;;1.83;1.65;;;23.80;99.90;;;;;;5066108;28;20295;-79
2023/07/15 02:57:28;;;;;;;3.15;2.20;;;23.80;99.90;;;;;;5072214;28;20583;-72
2023/07/15 02:59:55;;;;;;;2.75;2.55;;;23.80;99.90;;;;;;5072748;28;20237;-80
2023/07/15 03:02:23;;;;;;;2.00;1.80;;;23.80;99.90;;;;;;5072026;28;20245;-78
2023/07/15 03:04:51;;;;;;;2.17;1.75;;;23.70;99.90;;;;;;5072597;28;20677;-79
2023/07/15 03:07:20;;;;;;;3.10;1.80;;;23.60;99.90;;;;;;5072035;28;20273;-71
2023/07/15 03:09:47;;;;;;;2.00;1.80;;;23.70;99.90;;;;;;5072482;28;20242;-74
2023/07/15 03:12:14;;;;;;;1.80;1.70;;;23.70;99.90;;;;;;5071803;28;20642;-78
2023/07/15 03:14:42;;;;;;;2.67;2.47;;;23.70;99.90;;;;;;5072726;28;20261;-73
2023/07/15 03:17:10;;;;;;;2.15;1.95;;;23.70;99.90;;;;;;5071716;28;20694;-76
2023/07/15 03:19:37;;;;;;;3.80;2.05;;;23.70;99.90;;;;;;5072475;28;20217;-77
2023/07/15 03:22:05;;;;;;;4.18;1.58;;;23.60;99.90;;;;;;5072306;28;20241;-72
2023/07/15 03:24:35;;;;;;;2.85;2.65;;;23.70;99.90;;;;;;5071760;28;20202;-72
2023/07/15 03:27:02;;;;;;;2.28;2.00;;;23.70;99.90;;;;;;5072011;28;20284;-72
2023/07/15 03:29:29;;;;;;;2.38;1.63;;;23.80;99.90;;;;;;5071536;28;20949;-72
2023/07/15 03:31:55;;;;;;;2.28;2.08;;;23.70;99.90;;;;;;5072139;28;20666;-79
2023/07/15 03:34:22;;;;;;;2.00;1.80;;;23.70;99.90;;;;;;5071347;28;20252;-72
2023/07/15 03:36:49;;;;;;;1.90;1.70;;;23.50;99.90;;;;;;5072040;28;20238;-71
2023/07/15 03:39:16;;;;;;;1.60;1.50;;;23.60;99.90;;;;;;5071332;28;20248;-72
2023/07/15 03:41:44;;;;;;;2.08;1.63;;;23.60;99.90;;;;;;5072023;28;20656;-72
2023/07/15 03:44:11;;;;;;;2.20;2.00;;;23.70;99.90;;;;;;5071869;28;20241;-72
2023/07/15 03:46:38;;;;;;;2.10;1.83;;;23.70;99.90;;;;;;5071553;28;20812;-73
2023/07/15 03:49:06;;;;;;;3.83;1.77;;;23.70;99.90;;;;;;5072049;28;20214;-80
2023/07/15 03:51:34;;;;;;;1.88;1.67;;;23.80;99.90;;;;;;5071131;28;20202;-72
2023/07/15 03:54:01;;;;;;;2.75;1.95;;;23.80;99.90;;;;;;5057314;28;20221;-79
2023/07/15 03:56:28;;;;;;;2.30;1.80;;;23.80;99.90;;;;;;5071414;28;20325;-72
2023/07/15 03:58:56;;;;;;;3.13;1.73;;;23.90;99.90;;;;;;5071490;28;20208;-72
2023/07/15 04:01:23;;;;;;;2.72;2.17;;;23.80;99.90;;;;;;5070881;28;20238;-72
2023/07/15 04:03:50;;;;;;;2.28;2.13;;;23.80;99.90;;;;;;5071201;28;20256;-77
2023/07/15 04:06:17;;;;;;;1.63;1.52;;;23.80;99.90;;;;;;5070825;28;20234;-72
2023/07/15 04:08:44;;;;;;;2.28;1.48;;;23.80;99.90;;;;;;5071311;28;20238;-72
2023/07/15 04:11:11;;;;;;;2.08;1.50;;;23.80;99.90;;;;;;5071531;28;20303;-72
2023/07/15 04:13:38;;;;;;;2.05;1.80;;;23.80;99.90;;;;;;5071559;28;20300;-72
2023/07/15 04:16:07;;;;;;;1.90;1.80;;;23.80;99.90;;;;;;5071176;28;20574;-79
2023/07/15 04:18:34;;;;;;;2.45;1.58;;;23.80;99.90;;;;;;5070790;28;20206;-72
2023/07/15 04:21:00;;;;;;;1.80;1.70;;;23.80;99.90;;;;;;5070892;28;20268;-78
2023/07/15 04:23:27;;;;;;;2.65;1.88;;;23.80;99.90;;;;;;5070685;28;20263;-72
2023/07/15 04:25:54;;;;;;;2.35;1.88;;;23.80;99.90;;;;;;5070830;28;20685;-72
2023/07/15 04:28:21;;;;;;;3.33;1.88;;;23.70;99.90;;;;;;5070153;28;20279;-72
2023/07/15 04:30:48;;;;;;;1.42;1.33;;;23.70;99.90;;;;;;5071063;28;20694;-73
2023/07/15 04:33:17;;;;;;;2.38;1.73;;;23.70;99.90;;;;;;5070338;28;20306;-72
2023/07/15 04:35:45;;;;;;;2.00;1.80;;;23.60;99.90;;;;;;5070873;28;20276;-72
2023/07/15 04:38:12;;;;;;;1.77;1.67;;;23.60;99.90;;;;;;5070510;28;20233;-72
2023/07/15 04:40:39;;;;;;;2.25;1.98;;;23.60;99.90;;;;;;5071131;28;20259;-72
2023/07/15 04:43:06;;;;;;;1.50;1.35;;;23.60;99.90;;;;;;5070915;28;20263;-79
2023/07/15 04:45:33;;;;;;;2.13;1.83;;;23.60;99.90;;;;;;5070438;28;20202;-72
2023/07/15 04:48:00;;;;;;;2.42;1.83;;;23.60;99.90;;;;;;5070417;28;20287;-73
2023/07/15 04:50:29;;;;;;;1.83;1.70;;;23.60;99.90;;;;;;5070277;28;20241;-72
2023/07/15 04:52:55;;;;;;;2.13;1.70;;;23.60;99.90;;;;;;5060802;28;20273;-80
2023/07/15 04:55:22;;;;;;;1.95;1.85;;;23.60;99.90;;;;;;5066182;28;20560;-72
2023/07/15 04:57:49;;;;;;;2.88;1.63;;;23.70;99.90;;;;;;5070103;28;20210;-72
2023/07/15 05:00:16;;;;;;;1.88;1.77;;;23.70;99.90;;;;;;5070059;28;20233;-79
2023/07/15 05:02:44;;;;;;;1.45;1.25;;;23.80;99.90;;;;;;5070168;28;20206;-72
2023/07/15 05:05:12;;;;;;;1.55;1.45;;;23.80;99.90;;;;;;5070748;28;20206;-72
2023/07/15 05:07:40;;;;;;;2.17;1.77;;;23.80;99.90;;;;;;5070465;28;20752;-79
2023/07/15 05:10:07;;;;;;;1.52;1.27;;;23.80;99.90;;;;;;5070942;28;20693;-72
2023/07/15 05:12:34;;;;;;;1.50;1.40;;;23.80;99.90;;;;;;5069630;28;20247;-79
2023/07/15 05:15:02;;;;;;;1.50;1.40;;;23.80;99.90;;;;;;5070335;28;20238;-76
2023/07/15 05:17:29;;;;;;;2.22;2.00;;;23.80;99.90;;;;;;5069609;28;20213;-78
2023/07/15 05:19:56;;;;;;;1.60;1.50;;;23.80;99.90;;;;;;5070727;28;20237;-78
2023/07/15 05:22:23;;;;;;;2.22;1.88;;;23.70;99.90;;;;;;5069995;28;20248;-72
2023/07/15 05:24:51;;;;;;;2.85;1.83;;;23.80;99.90;;;;;;5070476;28;20202;-72
2023/07/15 05:27:18;;;;;;;3.92;1.98;;;23.80;99.90;;;;;;5069498;28;20748;-72
2023/07/15 05:29:45;;;;;;;2.42;2.22;;;23.80;99.90;;;;;;5070144;28;20244;-72
2023/07/15 05:32:12;;;;;;;4.30;1.98;;;23.80;99.90;;;;;;5070106;28;20241;-72
2023/07/15 05:34:39;;;;;;;1.67;1.58;;;23.80;99.90;;;;;;5070251;28;20685;-72
2023/07/15 05:37:07;;;;;;;2.13;1.95;;;23.90;99.90;;;;;;5070828;28;20248;-79
2023/07/15 05:39:34;;;;;;;1.88;1.77;;;23.90;99.90;;;;;;5070737;28;20238;-72
2023/07/15 05:42:02;;;;;;;2.08;1.85;;;23.90;99.90;;;;;;5073956;28;20206;-72
2023/07/15 05:44:30;;;;;;;1.80;1.70;;;23.90;99.90;;;;;;5073498;28;20629;-73
2023/07/15 05:46:57;;;;;;;1.60;1.50;;;24.00;99.90;;;;;;5074393;28;20230;-75
2023/07/15 05:49:23;;;;;;;2.88;2.28;;;24.00;99.90;;;;;;5073920;28;20650;-79
2023/07/15 05:51:50;;;;;;;2.95;2.00;;;23.90;99.90;;;;;;5072708;28;20237;-76
2023/07/15 05:54:17;;;;;;;2.80;1.90;;;24.00;99.90;;;;;;5060548;28;20241;-78
2023/07/15 05:56:44;;;;;;;2.08;1.83;;;24.10;99.90;;;;;;5073651;28;20656;-80
2023/07/15 05:59:12;;;;;;;1.70;1.60;;;24.20;99.90;;;;;;5073624;28;20229;-73
2023/07/15 06:01:41;;;;;;;2.33;2.13;;;24.30;99.90;;;;;;5074047;28;20249;-74
2023/07/15 06:04:08;;;;;;;2.58;1.42;;;24.30;99.90;;;;;;5073908;28;20236;-79
2023/07/15 06:06:36;;;;;;;2.38;1.95;;;24.40;99.90;;;;;;5073546;28;20673;-72
2023/07/15 06:09:03;;;;;;;1.60;1.50;;;24.50;99.90;;;;;;5073604;28;20230;-78
2023/07/15 06:11:30;;;;;;;2.42;1.98;;;24.50;99.90;;;;;;5072859;28;20752;-72
2023/07/15 06:14:00;;;;;;;2.22;1.88;;;24.50;99.90;;;;;;5073597;28;20347;-79
2023/07/15 06:16:28;;;;;;;2.40;1.70;;;24.50;99.90;;;;;;5072940;28;20677;-79
2023/07/15 06:18:55;;;;;;;1.60;1.50;;;24.50;99.90;;;;;;5073506;28;20249;-79
2023/07/15 06:21:22;;;;;;;1.50;1.40;;;24.40;99.90;;;;;;5059517;28;20234;-78
2023/07/15 06:23:49;;;;;;;2.28;1.75;;;24.50;99.90;;;;;;5073401;28;20248;-79
2023/07/15 06:26:16;;;;;;;2.13;1.90;;;24.50;99.90;;;;;;5072490;28;20244;-72
2023/07/15 06:28:43;;;;;;;1.75;1.65;;;24.40;99.90;;;;;;5073412;28;20273;-72
2023/07/15 06:31:10;;;;;;;2.70;2.33;;;24.20;99.90;;;;;;5073511;28;20249;-72
2023/07/15 06:33:39;;;;;;;2.00;1.77;;;24.30;99.90;;;;;;5073316;28;20218;-72
2023/07/15 06:36:07;;;;;;;3.95;2.13;;;24.20;99.90;;;;;;5073210;28;20213;-72
2023/07/15 06:38:34;;;;;;;1.85;1.65;;;24.30;99.90;;;;;;5072648;28;20214;-77
2023/07/15 06:41:01;;;;;;;2.42;1.90;;;24.40;99.90;;;;;;5072814;28;20702;-73
2023/07/15 06:43:28;;;;;;;2.15;1.58;;;24.50;99.90;;;;;;5072784;28;20669;-75
2023/07/15 06:45:55;;;;;;;2.00;1.80;;;24.50;99.90;;;;;;5073258;28;20244;-75
2023/07/15 06:48:22;;;;;;;2.55;2.17;;;24.60;99.90;;;;;;5072326;28;20269;-74
2023/07/15 06:50:51;;;;;;;2.78;1.30;;;24.50;99.90;;;;;;5071653;28;20234;-76
2023/07/15 06:53:18;;;;;;;1.80;1.33;;;24.60;99.90;;;;;;5059051;28;20302;-74
2023/07/15 06:55:45;;;;;;;1.75;1.65;;;24.60;99.90;;;;;;5071599;28;20732;-74
2023/07/15 06:58:12;;;;;;;2.28;2.00;;;24.60;99.90;;;;;;5072630;28;20210;-75
2023/07/15 07:00:39;;;;;;;1.80;1.65;;;24.70;99.90;;;;;;5072994;28;20233;-81
2023/07/15 07:03:06;;;;;;;4.03;3.38;;;24.80;99.90;;;;;;5073113;28;20242;-83
2023/07/15 07:05:32;;;;;;;6.10;5.50;;;24.80;99.90;;;;;;5072029;28;20246;-73
2023/07/15 07:08:01;;;;;;;2.03;1.92;;;24.80;99.90;;;;;;5072647;28;20728;-75
2023/07/15 07:10:28;;;;;;;2.20;1.92;;;25.00;99.90;;;;;;5072322;28;20245;-74
2023/07/15 07:12:55;;;;;;;2.70;1.90;;;25.00;99.90;;;;;;5072670;28;20673;-73
2023/07/15 07:15:21;;;;;;;2.55;2.30;;;25.10;99.90;;;;;;5072282;28;20245;-74
2023/07/15 07:17:48;;;;;;;2.90;2.22;;;25.10;99.90;;;;;;5072345;28;20210;-75
2023/07/15 07:20:15;;;;;;;2.22;2.03;;;25.20;99.90;;;;;;5071779;28;20713;-74
2023/07/15 07:22:42;;;;;;;3.28;1.90;;;25.00;99.90;;;;;;5072069;28;20669;-74
2023/07/15 07:25:11;;;;;;;2.08;1.92;;;25.30;99.90;;;;;;5072869;28;20233;-84
2023/07/15 07:27:38;;;;;;;2.08;1.80;;;25.40;99.90;;;;;;5072146;28;20257;-82
2023/07/15 07:30:06;;;;;;;2.28;2.05;;;25.70;99.90;;;;;;5072380;28;20268;-73
2023/07/15 07:32:33;;;;;;;2.08;1.98;;;25.70;99.90;;;;;;5071569;28;20265;-75
2023/07/15 07:35:00;;;;;;;3.15;2.10;;;25.80;99.90;;;;;;5072224;28;20940;-74
2023/07/15 07:37:27;;;;;;;2.03;1.83;;;26.10;99.90;;;;;;5071584;28;20238;-72
2023/07/15 07:39:53;;;;;;;1.60;1.50;;;26.30;99.90;;;;;;5071617;28;20234;-71
2023/07/15 07:42:22;;;;;;;2.20;2.00;;;26.50;99.90;;;;;;5071410;28;20705;-79
2023/07/15 07:44:49;;;;;;;2.08;1.88;;;26.40;99.90;;;;;;5071713;28;20678;-77
2023/07/15 07:47:16;;;;;;;2.22;2.03;;;26.50;99.90;;;;;;5071274;28;20245;-71
2023/07/15 07:49:43;;;;;;;1.83;1.67;;;26.50;99.90;;;;;;5071693;28;20241;-77
2023/07/15 07:52:09;;;;;;;2.85;2.65;;;26.60;99.90;;;;;;5068004;28;20671;-71
2023/07/15 07:54:36;;;;;;;6.07;5.50;;;26.90;99.90;;;;;;5061555;28;20210;-70
2023/07/15 07:57:03;;;;;;;3.30;2.30;;;27.00;99.90;;;;;;5071473;28;20239;-76
2023/07/15 07:59:31;;;;;;;2.97;2.40;;;26.80;99.90;;;;;;5071245;28;20252;-78
2023/07/15 08:01:58;;;;;;;2.30;2.10;;;26.60;99.90;;;;;;5070784;28;20238;-74
2023/07/15 08:04:25;;;;;;;2.80;2.40;;;26.90;99.90;;;;;;5071260;28;20237;-79
2023/07/15 08:06:51;;;;;;;3.53;2.08;;;26.40;99.90;;;;;;5071429;28;20245;-71
2023/07/15 08:09:18;;;;;;;2.92;1.73;;;25.90;99.90;;;;;;5070730;28;20265;-71
2023/07/15 08:11:46;;;;;;;2.50;2.40;;;25.90;99.90;;;;;;5071308;28;20283;-71
2023/07/15 08:14:13;;;;;;;2.25;2.05;;;26.10;99.90;;;;;;5070773;28;20230;-71
2023/07/15 08:16:41;;;;;;;3.65;2.08;;;26.70;99.90;;;;;;5071610;28;20306;-73
2023/07/15 08:19:08;;;;;;;2.20;1.92;;;26.90;99.90;;;;;;5071406;28;20206;-71
2023/07/15 08:21:35;;;;;;;2.60;2.40;;;27.30;99.90;;;;;;5070616;28;20588;-72
2023/07/15 08:24:02;;;;;;;2.47;2.22;;;26.90;99.90;;;;;;5071290;28;20637;-72
2023/07/15 08:26:29;;;;;;;2.42;2.20;;;26.70;99.90;;;;;;5070653;28;20206;-72
2023/07/15 08:28:58;;;;;;;2.95;2.20;;;27.10;99.90;;;;;;5070825;28;20264;-72
2023/07/15 08:31:25;;;;;;;3.35;2.42;;;26.80;99.90;;;;;;5070556;28;20201;-72
2023/07/15 08:33:54;;;;;;;3.10;2.35;;;26.50;99.90;;;;;;5070963;28;20245;-72
2023/07/15 08:36:22;;;;;;;3.53;2.20;;;26.40;99.90;;;;;;5070151;28;20205;-74
2023/07/15 08:38:49;;;;;;;4.32;2.75;;;26.70;99.90;;;;;;5070828;28;20206;-70
2023/07/15 08:41:17;;;;;;;2.50;2.30;;;26.90;99.90;;;;;;5070040;28;20233;-71
2023/07/15 08:43:45;;;;;;;2.55;2.35;;;26.70;99.90;;;;;;5071017;28;20209;-78
2023/07/15 08:46:20;;;;;;;3.35;3.05;;;26.80;99.90;;;;;;5070170;28;20662;-71
2023/07/15 08:48:47;;;;;;;2.58;2.38;;;26.80;99.90;;;;;;5070569;28;20268;-71
2023/07/15 08:51:15;;;;;;;3.72;2.67;;;26.60;99.90;;;;;;5069815;28;20630;-78
2023/07/15 08:53:45;;;;;;;3.88;2.53;;;26.90;99.90;;;;;;5056492;28;20654;-71
2023/07/15 08:56:14;;;;;;;3.03;2.42;;;27.10;99.90;;;;;;5070085;28;20237;-71
2023/07/15 08:58:41;;;;;;;2.92;2.65;;;27.20;99.90;;;;;;5070587;28;20213;-71
2023/07/15 09:01:09;;;;;;;4.10;2.83;;;27.30;99.90;;;;;;5070970;28;20234;-78
2023/07/15 09:03:36;;;;;;;4.63;2.70;;;27.50;99.90;;;;;;5070314;28;20209;-77
2023/07/15 09:06:03;;;;;;;5.07;3.15;;;27.70;99.90;;;;;;5070120;28;20237;-72
2023/07/15 09:08:31;;;;;;;3.45;3.15;;;26.70;99.90;;;;;;5069966;28;20813;-71
2023/07/15 09:10:59;;;;;;;2.47;2.28;;;27.10;99.90;;;;;;5070409;28;20206;-71
2023/07/15 09:13:27;;;;;;;2.90;2.58;;;27.00;99.90;;;;;;5069964;28;20238;-78
2023/07/15 09:15:55;;;;;;;3.60;3.30;;;27.30;99.90;;;;;;5069593;28;20245;-79
2023/07/15 09:18:23;;;;;;;5.72;3.78;;;27.40;99.90;;;;;;5069813;28;20248;-75
2023/07/15 09:20:50;;;;;;;2.60;2.35;;;27.30;99.90;;;;;;5069973;28;20206;-71
2023/07/15 09:23:18;;;;;;;2.72;2.53;;;27.50;99.90;;;;;;5069902;28;20202;-71
2023/07/15 09:25:52;;;;;;;3.95;2.95;;;27.30;99.90;;;;;;5070305;28;20603;-74
2023/07/15 09:28:20;;;;;;;5.00;2.90;;;27.30;99.90;;;;;;5057016;28;20276;-71
2023/07/15 09:30:47;;;;;;;3.40;3.17;;;27.30;99.90;;;;;;5070483;28;20213;-72
2023/07/15 09:33:32;;;;;;;2.67;2.40;;;27.40;99.90;;;;;;5069472;28;20233;-75
2023/07/15 09:35:59;;;;;;;10.77;4.95;;;27.50;99.90;;;;;;5070028;28;20209;-74
2023/07/15 09:38:31;;;;;;;3.85;3.05;;;27.60;99.90;;;;;;5069805;28;20731;-77
2023/07/15 09:41:00;;;;;;;3.17;2.97;;;27.70;99.90;;;;;;5070293;28;20206;-79
2023/07/15 09:43:46;;;;;;;4.38;2.67;;;27.70;99.90;;;;;;5069676;28;20206;-78
2023/07/15 09:46:15;;;;;;;4.22;3.50;;;27.90;99.90;;;;;;5069567;28;20217;-71
2023/07/15 09:48:42;;;;;;;3.58;2.58;;;27.90;99.90;;;;;;5070242;28;20234;-71
2023/07/15 09:51:13;;;;;;;5.75;3.42;;;28.10;99.90;;;;;;5070375;28;20210;-77
2023/07/15 09:53:43;;;;;;;3.15;2.92;;;28.00;99.90;;;;;;5056238;28;20207;-78
2023/07/15 09:56:13;;;;;;;2.83;2.58;;;28.00;99.90;;;;;;5070277;28;20202;-70
2023/07/15 09:58:43;;;;;;;2.35;2.17;;;28.10;99.90;;;;;;5070138;28;20244;-71
2023/07/15 10:01:15;;;;;;;8.93;2.65;;;28.10;99.90;;;;;;5070028;28;20574;-71
2023/07/15 10:03:44;;;;;;;2.97;2.38;;;28.00;99.90;;;;;;5069861;28;20232;-71
2023/07/15 10:06:13;;;;;;;2.67;2.47;;;28.00;99.90;;;;;;5070008;28;20206;-75
2023/07/15 10:08:40;;;;;;;3.55;3.25;;;28.00;99.90;;;;;;5070032;28;20265;-71
2023/07/15 10:11:09;;;;;;;2.17;2.03;;;28.00;99.90;;;;;;5070158;28;20202;-75
2023/07/15 10:13:37;;;;;;;6.57;3.42;;;28.00;99.90;;;;;;5070027;28;20203;-71
2023/07/15 10:16:05;;;;;;;2.40;2.20;;;27.90;99.90;;;;;;5069548;28;20237;-78
2023/07/15 10:18:32;;;;;;;4.15;3.35;;;27.70;99.90;;;;;;5069400;28;20257;-80
2023/07/15 10:21:03;;;;;;;3.38;2.92;;;27.60;99.90;;;;;;5070240;28;20238;-72
2023/07/15 10:23:31;;;;;;;3.60;3.30;;;27.60;99.90;;;;;;5069296;28;20217;-71
2023/07/15 10:26:00;;;;;;;3.03;2.83;;;27.30;99.90;;;;;;5071041;28;20245;-71
2023/07/15 10:28:31;;;;;;;3.03;2.83;;;27.00;99.90;;;;;;5072931;28;20312;-72
2023/07/15 10:31:11;;;;;;;4.07;2.72;;;27.30;99.90;;;;;;5072992;28;20217;-72
2023/07/15 10:33:52;;;;;;;4.28;3.13;;;27.20;99.90;;;;;;5073447;28;20271;-71
2023/07/15 10:36:36;;;;;;;3.65;2.67;;;27.50;99.90;;;;;;5072781;28;20212;-71
2023/07/15 10:39:11;;;;;;;3.42;2.63;;;27.60;99.90;;;;;;5073149;28;20306;-71
2023/07/15 10:41:46;;;;;;;2.60;2.40;;;27.60;99.90;;;;;;5073335;28;20285;-72
2023/07/15 10:44:17;;;;;;;3.33;2.67;;;27.30;99.90;;;;;;5072593;28;20244;-75
2023/07/15 10:46:47;;;;;;;3.85;3.00;;;27.30;99.90;;;;;;5072770;28;20240;-72
2023/07/15 10:49:14;;;;;;;5.00;2.55;;;27.10;99.90;;;;;;5072430;28;20273;-72
2023/07/15 10:51:42;;;;;;;3.17;2.63;;;27.20;99.90;;;;;;5072776;28;20204;-71
2023/07/15 10:54:09;;;;;;;5.15;3.15;;;27.50;99.90;;;;;;5059044;28;20279;-71
2023/07/15 10:56:36;;;;;;;3.92;3.63;;;27.70;99.90;;;;;;5072699;28;20289;-71
2023/07/15 10:59:03;;;;;;;5.40;3.63;;;27.60;99.90;;;;;;5072459;28;20249;-71
2023/07/15 11:01:31;;;;;;;4.03;3.20;;;27.60;99.90;;;;;;5072161;28;20252;-73
2023/07/15 11:04:05;;;;;;;4.68;3.58;;;27.50;99.90;;;;;;5072621;28;20244;-71
2023/07/15 11:06:34;;;;;;;3.42;2.90;;;27.50;99.90;;;;;;5072175;28;20296;-71
2023/07/15 11:09:14;;;;;;;3.40;3.10;;;27.50;99.90;;;;;;5072471;28;20240;-70
2023/07/15 11:11:41;;;;;;;4.07;3.00;;;27.50;99.90;;;;;;5072486;28;20685;-71
2023/07/15 11:14:22;;;;;;;3.20;3.00;;;27.40;99.90;;;;;;5072807;28;20237;-72
2023/07/15 11:16:51;;;;;;;4.10;3.50;;;27.50;99.90;;;;;;5072313;28;20241;-70
2023/07/15 11:19:20;;;;;;;5.90;3.63;;;27.60;99.90;;;;;;5071993;28;20210;-72
2023/07/15 11:21:47;;;;;;;4.28;3.88;;;27.50;99.90;;;;;;5072262;28;20202;-71
2023/07/15 11:24:15;;;;;;;4.03;3.72;;;27.50;99.90;;;;;;5071850;28;20210;-72
2023/07/15 11:26:42;;;;;;;7.00;3.70;;;27.30;99.90;;;;;;5072471;28;20256;-72
2023/07/15 11:29:17;;;;;;;5.13;4.63;;;27.20;99.90;;;;;;5072221;28;20236;-72
2023/07/15 11:31:46;;;;;;;4.07;3.25;;;27.10;99.90;;;;;;5072220;28;20275;-73
2023/07/15 11:34:13;;;;;;;5.30;4.60;;;27.40;99.90;;;;;;5071408;28;20249;-71
2023/07/15 11:36:41;;;;;;;4.05;3.65;;;27.70;99.90;;;;;;5071817;28;20295;-72
2023/07/15 11:39:08;;;;;;;4.38;3.97;;;27.90;99.90;;;;;;5072122;28;20249;-71
2023/07/15 11:41:37;;;;;;;4.20;3.90;;;28.00;99.90;;;;;;5071516;28;20574;-72
2023/07/15 11:44:07;;;;;;;5.82;4.88;;;28.20;99.90;;;;;;5071801;28;20261;-74
2023/07/15 11:46:35;;;;;;;3.92;3.13;;;28.70;99.90;;;;;;5071912;28;20241;-73
2023/07/15 11:49:03;;;;;;;5.43;4.05;;;29.50;99.90;;;;;;5071672;28;20226;-73
2023/07/15 11:51:32;;;;;;;4.57;3.55;;;30.00;99.90;;;;;;5071287;28;20259;-73
2023/07/15 11:54:01;;;;;;;6.85;4.05;;;30.00;99.90;;;;;;5057640;28;20199;-72
2023/07/15 11:56:35;;;;;;;4.93;4.50;;;30.40;99.90;;;;;;5071185;28;20242;-72
2023/07/15 11:59:02;;;;;;;7.00;4.75;;;30.50;99.90;;;;;;5071205;28;20241;-71
2023/07/15 12:01:29;;;;;;;5.93;4.60;;;30.40;99.90;;;;;;5071030;28;20233;-71
2023/07/15 12:03:56;;;;;;;7.30;4.43;;;30.80;99.90;;;;;;5071128;28;20241;-72
2023/07/15 12:06:25;;;;;;;4.70;4.30;;;30.90;99.90;;;;;;5071271;28;20214;-71
2023/07/15 12:09:05;;;;;;;6.10;5.53;;;31.00;99.90;;;;;;5071158;28;20244;-71
2023/07/15 12:11:33;;;;;;;5.43;4.63;;;30.80;99.90;;;;;;5070980;28;20206;-71
2023/07/15 12:14:02;;;;;;;6.50;4.97;;;30.70;99.90;;;;;;5070885;28;20241;-71
2023/07/15 12:16:30;;;;;;;5.55;5.05;;;30.80;99.90;;;;;;5070762;28;20236;-71
2023/07/15 12:18:57;;;;;;;5.18;4.68;;;30.90;99.90;;;;;;5071166;28;20758;-71
2023/07/15 12:21:24;;;;;;;7.85;4.68;;;30.50;99.90;;;;;;5056964;28;20701;-71
2023/07/15 12:23:51;;;;;;;6.82;4.65;;;30.10;99.90;;;;;;5071209;28;20245;-75
2023/07/15 12:26:20;;;;;;;5.05;4.60;;;29.90;99.90;;;;;;5070479;28;20230;-73
2023/07/15 12:28:47;;;;;;;4.35;4.03;;;29.80;99.90;;;;;;5070981;28;20241;-73
2023/07/15 12:31:15;;;;;;;5.10;4.60;;;30.40;99.90;;;;;;5070584;28;20233;-72
2023/07/15 12:33:42;;;;;;;12.82;11.60;;;30.80;99.90;;;;;;5071098;28;20271;-77
2023/07/15 12:36:10;;;;;;;5.70;5.28;;;31.10;99.90;;;;;;5071234;28;20241;-77
2023/07/15 12:38:37;;;;;;;4.85;3.78;;;31.60;99.90;;;;;;5071017;28;20263;-77
2023/07/15 12:41:05;;;;;;;7.40;6.78;;;32.00;99.90;;;;;;5070818;28;20245;-71
2023/07/15 12:43:33;;;;;;;6.47;5.82;;;32.20;99.90;;;;;;5056923;28;20241;-78
2023/07/15 12:46:01;;;;;;;6.43;5.93;;;32.00;99.90;;;;;;5070822;28;20619;-76
2023/07/15 12:48:28;;;;;;;4.93;3.72;;;31.60;99.90;;;;;;5070175;28;20205;-71
2023/07/15 12:50:56;;;;;;;4.20;3.80;;;31.60;99.90;;;;;;5070578;28;20276;-75